sensor_id;sensor_type;location;lat;lon;timestamp;temperature;humidity
71096;DHT22;58753;49.440;11.126;2023-02-02T00:01:44;5.35;77.88
71096;DHT22;58753;49.440;11.126;2023-02-02T00:04:15;5.36;77.81
71096;DHT22;58753;49.440;11.126;2023-02-02T00:06:41;5.39;77.70
71096;DHT22;58753;49.440;11.126;2023-02-02T00:09:06;5.33;77.83
71096;DHT22;58753;49.440;11.126;2023-02-02T00:11:32;5.35;77.78
71096;DHT22;58753;49.440;11.126;2023-02-02T00:13:57;5.37;77.80
71096;DHT22;58753;49.440;11.126;2023-02-02T00:18:59;5.16;78.60
71096;DHT22;58753;49.440;11.126;2023-02-02T00:21:26;5.16;78.86
71096;DHT22;58753;49.440;11.126;2023-02-02T00:23:51;5.09;79.10
71096;DHT22;58753;49.440;11.126;2023-02-02T00:26:17;5.18;79.29
71096;DHT22;58753;49.440;11.126;2023-02-02T00:28:43;5.25;79.21
71096;DHT22;58753;49.440;11.126;2023-02-02T00:31:09;5.28;79.15
71096;DHT22;58753;49.440;11.126;2023-02-02T00:33:34;5.28;79.11
71096;DHT22;58753;49.440;11.126;2023-02-02T00:36:00;5.23;79.18
71096;DHT22;58753;49.440;11.126;2023-02-02T00:38:25;5.19;79.26
71096;DHT22;58753;49.440;11.126;2023-02-02T00:40:50;5.22;79.47
71096;DHT22;58753;49.440;11.126;2023-02-02T00:43:16;5.26;79.39
71096;DHT22;58753;49.440;11.126;2023-02-02T00:45:41;5.23;79.41
71096;DHT22;58753;49.440;11.126;2023-02-02T00:48:06;5.32;79.53
71096;DHT22;58753;49.440;11.126;2023-02-02T00:50:32;5.32;79.45
71096;DHT22;58753;49.440;11.126;2023-02-02T00:52:57;5.25;79.60
71096;DHT22;58753;49.440;11.126;2023-02-02T00:55:24;5.23;79.82
71096;DHT22;58753;49.440;11.126;2023-02-02T00:57:50;5.12;80.03
71096;DHT22;58753;49.440;11.126;2023-02-02T01:00:17;5.09;80.63
71096;DHT22;58753;49.440;11.126;2023-02-02T01:02:43;5.08;80.87
71096;DHT22;58753;49.440;11.126;2023-02-02T01:05:10;5.04;81.17
71096;DHT22;58753;49.440;11.126;2023-02-02T01:07:36;4.96;81.52
71096;DHT22;58753;49.440;11.126;2023-02-02T01:10:02;4.88;81.98
71096;DHT22;58753;49.440;11.126;2023-02-02T01:12:28;4.91;82.41
71096;DHT22;58753;49.440;11.126;2023-02-02T01:14:53;4.85;82.52
71096;DHT22;58753;49.440;11.126;2023-02-02T01:17:18;4.84;82.60
71096;DHT22;58753;49.440;11.126;2023-02-02T01:19:44;4.55;81.75
71096;DHT22;58753;49.440;11.126;2023-02-02T01:22:09;4.07;81.35
71096;DHT22;58753;49.440;11.126;2023-02-02T01:24:34;3.79;81.83
71096;DHT22;58753;49.440;11.126;2023-02-02T01:27:00;3.48;82.60
71096;DHT22;58753;49.440;11.126;2023-02-02T01:29:26;3.35;83.47
71096;DHT22;58753;49.440;11.126;2023-02-02T01:31:51;3.22;83.65
71096;DHT22;58753;49.440;11.126;2023-02-02T01:34:16;3.11;84.29
71096;DHT22;58753;49.440;11.126;2023-02-02T01:36:42;3.04;84.55
71096;DHT22;58753;49.440;11.126;2023-02-02T01:39:07;2.95;84.80
71096;DHT22;58753;49.440;11.126;2023-02-02T01:41:33;2.85;85.03
71096;DHT22;58753;49.440;11.126;2023-02-02T01:44:00;2.72;85.22
71096;DHT22;58753;49.440;11.126;2023-02-02T01:46:28;2.66;85.73
71096;DHT22;58753;49.440;11.126;2023-02-02T01:49:00;2.53;85.98
71096;DHT22;58753;49.440;11.126;2023-02-02T01:51:32;2.39;86.33
71096;DHT22;58753;49.440;11.126;2023-02-02T01:53:59;2.30;86.47
71096;DHT22;58753;49.440;11.126;2023-02-02T01:56:43;2.19;86.73
71096;DHT22;58753;49.440;11.126;2023-02-02T01:59:11;2.01;86.91
71096;DHT22;58753;49.440;11.126;2023-02-02T02:01:38;1.88;86.90
71096;DHT22;58753;49.440;11.126;2023-02-02T02:04:03;1.77;87.47
71096;DHT22;58753;49.440;11.126;2023-02-02T02:06:29;1.65;87.60
71096;DHT22;58753;49.440;11.126;2023-02-02T02:09:00;1.58;87.91
71096;DHT22;58753;49.440;11.126;2023-02-02T02:11:28;1.50;88.24
71096;DHT22;58753;49.440;11.126;2023-02-02T02:13:56;1.41;88.34
71096;DHT22;58753;49.440;11.126;2023-02-02T02:25:51;0.89;88.87
71096;DHT22;58753;49.440;11.126;2023-02-02T02:32:13;0.76;89.61
71096;DHT22;58753;49.440;11.126;2023-02-02T02:34:46;0.80;90.15
71096;DHT22;58753;49.440;11.126;2023-02-02T02:42:33;0.80;90.37
71096;DHT22;58753;49.440;11.126;2023-02-02T02:45:02;0.72;90.44
71096;DHT22;58753;49.440;11.126;2023-02-02T02:47:29;0.73;90.62
71096;DHT22;58753;49.440;11.126;2023-02-02T02:49:55;0.68;90.59
71096;DHT22;58753;49.440;11.126;2023-02-02T02:52:20;0.62;90.58
71096;DHT22;58753;49.440;11.126;2023-02-02T02:54:46;0.56;90.75
71096;DHT22;58753;49.440;11.126;2023-02-02T02:57:43;0.55;91.00
71096;DHT22;58753;49.440;11.126;2023-02-02T03:00:20;0.59;91.43
71096;DHT22;58753;49.440;11.126;2023-02-02T03:06:14;0.59;91.56
71096;DHT22;58753;49.440;11.126;2023-02-02T03:09:03;0.58;91.65
71096;DHT22;58753;49.440;11.126;2023-02-02T03:11:26;0.61;91.72
71096;DHT22;58753;49.440;11.126;2023-02-02T03:13:52;0.61;91.89
71096;DHT22;58753;49.440;11.126;2023-02-02T03:16:17;0.61;92.14
71096;DHT22;58753;49.440;11.126;2023-02-02T03:18:43;0.62;92.00
71096;DHT22;58753;49.440;11.126;2023-02-02T03:21:08;0.63;92.20
71096;DHT22;58753;49.440;11.126;2023-02-02T03:23:34;0.59;92.19
71096;DHT22;58753;49.440;11.126;2023-02-02T03:25:59;0.61;92.34
71096;DHT22;58753;49.440;11.126;2023-02-02T03:28:26;0.59;92.32
71096;DHT22;58753;49.440;11.126;2023-02-02T03:30:53;0.58;92.53
71096;DHT22;58753;49.440;11.126;2023-02-02T03:33:19;0.59;92.66
71096;DHT22;58753;49.440;11.126;2023-02-02T03:35:45;0.59;92.67
71096;DHT22;58753;49.440;11.126;2023-02-02T03:38:10;0.62;92.78
71096;DHT22;58753;49.440;11.126;2023-02-02T03:40:37;0.62;92.84
71096;DHT22;58753;49.440;11.126;2023-02-02T03:43:03;0.65;93.18
71096;DHT22;58753;49.440;11.126;2023-02-02T03:45:29;0.62;92.84
71096;DHT22;58753;49.440;11.126;2023-02-02T03:47:54;0.61;92.97
71096;DHT22;58753;49.440;11.126;2023-02-02T03:50:20;0.62;93.20
71096;DHT22;58753;49.440;11.126;2023-02-02T03:52:45;0.62;93.22
71096;DHT22;58753;49.440;11.126;2023-02-02T03:55:10;0.65;93.46
71096;DHT22;58753;49.440;11.126;2023-02-02T03:57:36;0.63;93.35
71096;DHT22;58753;49.440;11.126;2023-02-02T04:00:02;0.65;93.40
71096;DHT22;58753;49.440;11.126;2023-02-02T04:02:28;0.68;93.58
71096;DHT22;58753;49.440;11.126;2023-02-02T04:04:53;0.68;93.69
71096;DHT22;58753;49.440;11.126;2023-02-02T04:07:19;0.66;93.52
71096;DHT22;58753;49.440;11.126;2023-02-02T04:09:44;0.66;93.60
71096;DHT22;58753;49.440;11.126;2023-02-02T04:12:09;0.66;93.67
71096;DHT22;58753;49.440;11.126;2023-02-02T04:14:35;0.69;93.71
71096;DHT22;58753;49.440;11.126;2023-02-02T04:17:00;0.70;93.86
71096;DHT22;58753;49.440;11.126;2023-02-02T04:19:25;0.75;93.94
71096;DHT22;58753;49.440;11.126;2023-02-02T04:21:52;0.75;93.88
71096;DHT22;58753;49.440;11.126;2023-02-02T04:24:17;0.75;93.85
71096;DHT22;58753;49.440;11.126;2023-02-02T04:26:42;0.76;93.92
71096;DHT22;58753;49.440;11.126;2023-02-02T04:29:08;0.79;94.07
71096;DHT22;58753;49.440;11.126;2023-02-02T04:31:34;0.83;94.10
71096;DHT22;58753;49.440;11.126;2023-02-02T04:33:59;0.83;94.12
71096;DHT22;58753;49.440;11.126;2023-02-02T04:36:25;0.85;94.08
71096;DHT22;58753;49.440;11.126;2023-02-02T04:38:52;0.82;94.13
71096;DHT22;58753;49.440;11.126;2023-02-02T04:41:18;0.85;94.07
71096;DHT22;58753;49.440;11.126;2023-02-02T04:43:44;0.87;94.31
71096;DHT22;58753;49.440;11.126;2023-02-02T04:46:10;0.92;94.27
71096;DHT22;58753;49.440;11.126;2023-02-02T04:48:36;0.92;94.37
71096;DHT22;58753;49.440;11.126;2023-02-02T04:51:07;0.93;94.32
71096;DHT22;58753;49.440;11.126;2023-02-02T04:53:32;0.95;94.32
71096;DHT22;58753;49.440;11.126;2023-02-02T04:56:04;0.87;94.27
71096;DHT22;58753;49.440;11.126;2023-02-02T04:58:30;0.86;94.26
71096;DHT22;58753;49.440;11.126;2023-02-02T05:00:56;0.79;94.11
71096;DHT22;58753;49.440;11.126;2023-02-02T05:03:21;0.73;94.13
71096;DHT22;58753;49.440;11.126;2023-02-02T05:05:47;0.69;94.12
71096;DHT22;58753;49.440;11.126;2023-02-02T05:08:12;0.66;94.18
71096;DHT22;58753;49.440;11.126;2023-02-02T05:10:40;0.61;94.26
71096;DHT22;58753;49.440;11.126;2023-02-02T05:13:07;0.62;94.38
71096;DHT22;58753;49.440;11.126;2023-02-02T05:15:32;0.59;94.38
71096;DHT22;58753;49.440;11.126;2023-02-02T05:17:58;0.63;94.80
71096;DHT22;58753;49.440;11.126;2023-02-02T05:20:23;0.70;94.68
71096;DHT22;58753;49.440;11.126;2023-02-02T05:22:49;0.69;94.84
71096;DHT22;58753;49.440;11.126;2023-02-02T05:25:14;0.72;94.83
71096;DHT22;58753;49.440;11.126;2023-02-02T05:27:44;0.76;94.88
71096;DHT22;58753;49.440;11.126;2023-02-02T05:30:13;0.79;94.89
71096;DHT22;58753;49.440;11.126;2023-02-02T05:32:39;0.80;94.84
71096;DHT22;58753;49.440;11.126;2023-02-02T05:35:05;0.80;94.82
71096;DHT22;58753;49.440;11.126;2023-02-02T05:37:30;0.80;94.87
71096;DHT22;58753;49.440;11.126;2023-02-02T05:39:55;0.79;94.85
71096;DHT22;58753;49.440;11.126;2023-02-02T05:42:21;0.80;94.88
71096;DHT22;58753;49.440;11.126;2023-02-02T05:44:46;0.83;94.86
71096;DHT22;58753;49.440;11.126;2023-02-02T05:47:12;0.82;94.87
71096;DHT22;58753;49.440;11.126;2023-02-02T05:49:37;0.83;94.92
71096;DHT22;58753;49.440;11.126;2023-02-02T05:52:03;0.87;94.92
71096;DHT22;58753;49.440;11.126;2023-02-02T05:54:29;0.83;94.95
71096;DHT22;58753;49.440;11.126;2023-02-02T05:56:54;0.83;94.90
71096;DHT22;58753;49.440;11.126;2023-02-02T05:59:21;0.85;94.97
71096;DHT22;58753;49.440;11.126;2023-02-02T06:01:47;0.86;94.97
71096;DHT22;58753;49.440;11.126;2023-02-02T06:04:13;0.86;95.03
71096;DHT22;58753;49.440;11.126;2023-02-02T06:06:39;0.83;95.02
71096;DHT22;58753;49.440;11.126;2023-02-02T06:09:06;0.86;95.08
71096;DHT22;58753;49.440;11.126;2023-02-02T06:11:31;0.85;95.04
71096;DHT22;58753;49.440;11.126;2023-02-02T06:13:57;0.85;95.14
71096;DHT22;58753;49.440;11.126;2023-02-02T06:16:23;0.87;95.07
71096;DHT22;58753;49.440;11.126;2023-02-02T06:18:49;0.86;95.08
71096;DHT22;58753;49.440;11.126;2023-02-02T06:21:15;0.86;95.12
71096;DHT22;58753;49.440;11.126;2023-02-02T06:23:40;0.87;95.25
71096;DHT22;58753;49.440;11.126;2023-02-02T06:26:16;0.87;95.16
71096;DHT22;58753;49.440;11.126;2023-02-02T06:28:42;0.86;95.23
71096;DHT22;58753;49.440;11.126;2023-02-02T06:31:10;0.87;95.27
71096;DHT22;58753;49.440;11.126;2023-02-02T06:33:36;0.90;95.35
71096;DHT22;58753;49.440;11.126;2023-02-02T06:36:04;0.90;95.27
71096;DHT22;58753;49.440;11.126;2023-02-02T06:38:30;0.92;95.33
71096;DHT22;58753;49.440;11.126;2023-02-02T06:40:59;0.95;95.27
71096;DHT22;58753;49.440;11.126;2023-02-02T06:43:24;0.96;95.23
71096;DHT22;58753;49.440;11.126;2023-02-02T06:45:50;0.97;95.30
71096;DHT22;58753;49.440;11.126;2023-02-02T06:48:15;1.01;95.40
71096;DHT22;58753;49.440;11.126;2023-02-02T06:50:40;1.04;95.32
71096;DHT22;58753;49.440;11.126;2023-02-02T06:53:06;1.03;95.33
71096;DHT22;58753;49.440;11.126;2023-02-02T06:55:31;1.01;95.26
71096;DHT22;58753;49.440;11.126;2023-02-02T06:57:58;1.04;95.30
71096;DHT22;58753;49.440;11.126;2023-02-02T07:00:24;1.04;95.41
71096;DHT22;58753;49.440;11.126;2023-02-02T07:02:49;1.07;95.51
71096;DHT22;58753;49.440;11.126;2023-02-02T07:05:14;1.08;95.41
71096;DHT22;58753;49.440;11.126;2023-02-02T07:07:40;1.10;95.41
71096;DHT22;58753;49.440;11.126;2023-02-02T07:10:06;1.06;95.26
71096;DHT22;58753;49.440;11.126;2023-02-02T07:12:31;1.03;95.39
71096;DHT22;58753;49.440;11.126;2023-02-02T07:14:56;1.06;95.41
71096;DHT22;58753;49.440;11.126;2023-02-02T07:17:24;1.08;95.46
71096;DHT22;58753;49.440;11.126;2023-02-02T07:19:50;1.12;95.52
71096;DHT22;58753;49.440;11.126;2023-02-02T07:22:15;1.16;95.50
71096;DHT22;58753;49.440;11.126;2023-02-02T07:24:41;1.24;95.65
71096;DHT22;58753;49.440;11.126;2023-02-02T07:27:06;1.27;95.58
71096;DHT22;58753;49.440;11.126;2023-02-02T07:29:31;1.28;95.59
71096;DHT22;58753;49.440;11.126;2023-02-02T07:31:57;1.37;95.62
71096;DHT22;58753;49.440;11.126;2023-02-02T07:34:23;1.40;95.65
71096;DHT22;58753;49.440;11.126;2023-02-02T07:36:48;1.46;95.71
71096;DHT22;58753;49.440;11.126;2023-02-02T07:39:14;1.46;95.61
71096;DHT22;58753;49.440;11.126;2023-02-02T07:41:39;1.50;95.63
71096;DHT22;58753;49.440;11.126;2023-02-02T07:44:05;1.50;95.56
71096;DHT22;58753;49.440;11.126;2023-02-02T07:46:31;1.55;95.74
71096;DHT22;58753;49.440;11.126;2023-02-02T07:48:57;1.62;95.77
71096;DHT22;58753;49.440;11.126;2023-02-02T07:51:23;1.71;95.86
71096;DHT22;58753;49.440;11.126;2023-02-02T07:53:51;1.72;95.67
71096;DHT22;58753;49.440;11.126;2023-02-02T07:56:18;1.77;95.77
71096;DHT22;58753;49.440;11.126;2023-02-02T07:58:44;1.78;95.62
71096;DHT22;58753;49.440;11.126;2023-02-02T08:01:11;1.81;95.81
71096;DHT22;58753;49.440;11.126;2023-02-02T08:03:38;1.92;95.84
71096;DHT22;58753;49.440;11.126;2023-02-02T08:08:34;1.94;95.56
71096;DHT22;58753;49.440;11.126;2023-02-02T08:10:59;1.92;95.64
71096;DHT22;58753;49.440;11.126;2023-02-02T08:13:24;1.92;95.50
71096;DHT22;58753;49.440;11.126;2023-02-02T08:15:50;1.86;95.52
71096;DHT22;58753;49.440;11.126;2023-02-02T08:18:15;1.82;95.57
71096;DHT22;58753;49.440;11.126;2023-02-02T08:20:41;1.79;95.62
71096;DHT22;58753;49.440;11.126;2023-02-02T08:23:07;1.78;95.62
71096;DHT22;58753;49.440;11.126;2023-02-02T08:25:40;1.74;95.59
71096;DHT22;58753;49.440;11.126;2023-02-02T08:28:05;1.69;95.44
71096;DHT22;58753;49.440;11.126;2023-02-02T08:30:31;1.57;95.52
71096;DHT22;58753;49.440;11.126;2023-02-02T08:32:56;1.50;95.60
71096;DHT22;58753;49.440;11.126;2023-02-02T08:35:22;1.44;95.76
71096;DHT22;58753;49.440;11.126;2023-02-02T08:37:48;1.41;95.75
71096;DHT22;58753;49.440;11.126;2023-02-02T08:40:13;1.37;95.74
71096;DHT22;58753;49.440;11.126;2023-02-02T08:42:39;1.33;95.81
71096;DHT22;58753;49.440;11.126;2023-02-02T08:45:05;1.30;95.76
71096;DHT22;58753;49.440;11.126;2023-02-02T08:47:30;1.28;95.80
71096;DHT22;58753;49.440;11.126;2023-02-02T08:49:56;1.24;95.88
71096;DHT22;58753;49.440;11.126;2023-02-02T08:52:21;1.26;95.89
71096;DHT22;58753;49.440;11.126;2023-02-02T08:54:47;1.27;95.96
71096;DHT22;58753;49.440;11.126;2023-02-02T08:57:12;1.27;95.89
71096;DHT22;58753;49.440;11.126;2023-02-02T08:59:37;1.27;95.81
71096;DHT22;58753;49.440;11.126;2023-02-02T09:02:03;1.31;95.91
71096;DHT22;58753;49.440;11.126;2023-02-02T09:04:28;1.33;95.93
71096;DHT22;58753;49.440;11.126;2023-02-02T09:06:53;1.36;95.96
71096;DHT22;58753;49.440;11.126;2023-02-02T09:09:19;1.37;95.89
71096;DHT22;58753;49.440;11.126;2023-02-02T09:11:44;1.36;95.87
71096;DHT22;58753;49.440;11.126;2023-02-02T09:14:12;1.37;95.87
71096;DHT22;58753;49.440;11.126;2023-02-02T09:16:38;1.41;95.99
71096;DHT22;58753;49.440;11.126;2023-02-02T09:19:04;1.41;95.95
71096;DHT22;58753;49.440;11.126;2023-02-02T09:21:29;1.43;95.86
71096;DHT22;58753;49.440;11.126;2023-02-02T09:23:55;1.47;95.96
71096;DHT22;58753;49.440;11.126;2023-02-02T09:28:53;1.52;96.01
71096;DHT22;58753;49.440;11.126;2023-02-02T09:31:19;1.50;95.95
71096;DHT22;58753;49.440;11.126;2023-02-02T09:33:44;1.54;95.97
71096;DHT22;58753;49.440;11.126;2023-02-02T09:36:16;1.54;95.99
71096;DHT22;58753;49.440;11.126;2023-02-02T09:38:42;1.58;95.97
71096;DHT22;58753;49.440;11.126;2023-02-02T09:47:16;1.55;95.97
71096;DHT22;58753;49.440;11.126;2023-02-02T09:52:50;1.55;95.99
71096;DHT22;58753;49.440;11.126;2023-02-02T09:55:27;1.58;96.01
71096;DHT22;58753;49.440;11.126;2023-02-02T09:58:06;1.60;96.12
71096;DHT22;58753;49.440;11.126;2023-02-02T10:00:36;1.61;96.05
71096;DHT22;58753;49.440;11.126;2023-02-02T10:03:13;1.60;95.90
71096;DHT22;58753;49.440;11.126;2023-02-02T10:05:48;1.62;96.03
71096;DHT22;58753;49.440;11.126;2023-02-02T10:08:21;1.68;96.00
71096;DHT22;58753;49.440;11.126;2023-02-02T10:10:49;1.65;96.02
71096;DHT22;58753;49.440;11.126;2023-02-02T10:13:18;1.68;96.05
71096;DHT22;58753;49.440;11.126;2023-02-02T10:16:05;1.69;96.08
71096;DHT22;58753;49.440;11.126;2023-02-02T10:18:56;1.69;96.09
71096;DHT22;58753;49.440;11.126;2023-02-02T10:21:53;1.77;96.08
71096;DHT22;58753;49.440;11.126;2023-02-02T10:24:23;1.78;96.17
71096;DHT22;58753;49.440;11.126;2023-02-02T10:26:52;1.81;96.10
71096;DHT22;58753;49.440;11.126;2023-02-02T10:32:21;1.83;96.20
71096;DHT22;58753;49.440;11.126;2023-02-02T10:37:54;1.88;96.04
71096;DHT22;58753;49.440;11.126;2023-02-02T10:41:01;1.92;96.14
71096;DHT22;58753;49.440;11.126;2023-02-02T10:48:40;2.02;96.20
71096;DHT22;58753;49.440;11.126;2023-02-02T10:53:47;2.08;96.18
71096;DHT22;58753;49.440;11.126;2023-02-02T10:56:17;2.13;96.56
71096;DHT22;58753;49.440;11.126;2023-02-02T10:58:49;2.23;96.40
71096;DHT22;58753;49.440;11.126;2023-02-02T11:01:17;2.26;96.39
71096;DHT22;58753;49.440;11.126;2023-02-02T11:03:46;2.77;98.25
71096;DHT22;58753;49.440;11.126;2023-02-02T11:06:12;3.36;98.38
71096;DHT22;58753;49.440;11.126;2023-02-02T11:08:57;3.94;98.09
71096;DHT22;58753;49.440;11.126;2023-02-02T11:11:39;4.25;97.42
71096;DHT22;58753;49.440;11.126;2023-02-02T11:16:32;4.60;96.91
71096;DHT22;58753;49.440;11.126;2023-02-02T11:18:58;4.71;96.69
71096;DHT22;58753;49.440;11.126;2023-02-02T11:21:29;4.76;96.54
71096;DHT22;58753;49.440;11.126;2023-02-02T11:24:03;4.82;96.12
71096;DHT22;58753;49.440;11.126;2023-02-02T11:29:12;4.86;95.84
71096;DHT22;58753;49.440;11.126;2023-02-02T11:31:38;4.89;95.74
71096;DHT22;58753;49.440;11.126;2023-02-02T11:34:24;4.96;95.75
71096;DHT22;58753;49.440;11.126;2023-02-02T11:37:19;5.06;95.45
71096;DHT22;58753;49.440;11.126;2023-02-02T11:39:44;5.12;95.25
71096;DHT22;58753;49.440;11.126;2023-02-02T11:42:21;5.19;95.07
71096;DHT22;58753;49.440;11.126;2023-02-02T11:44:56;5.32;94.84
71096;DHT22;58753;49.440;11.126;2023-02-02T11:47:31;5.32;94.71
71096;DHT22;58753;49.440;11.126;2023-02-02T11:49:59;5.33;94.67
71096;DHT22;58753;49.440;11.126;2023-02-02T11:52:27;5.36;94.54
71096;DHT22;58753;49.440;11.126;2023-02-02T11:54:59;5.40;94.16
71096;DHT22;58753;49.440;11.126;2023-02-02T11:57:27;5.37;94.16
71096;DHT22;58753;49.440;11.126;2023-02-02T12:00:15;5.39;94.12
71096;DHT22;58753;49.440;11.126;2023-02-02T12:02:48;5.39;93.94
71096;DHT22;58753;49.440;11.126;2023-02-02T12:07:46;5.46;93.66
71096;DHT22;58753;49.440;11.126;2023-02-02T12:10:31;5.47;93.62
71096;DHT22;58753;49.440;11.126;2023-02-02T12:13:08;5.44;93.55
71096;DHT22;58753;49.440;11.126;2023-02-02T12:15:38;5.47;93.48
71096;DHT22;58753;49.440;11.126;2023-02-02T12:29:21;5.56;92.94
71096;DHT22;58753;49.440;11.126;2023-02-02T12:32:03;5.59;92.78
71096;DHT22;58753;49.440;11.126;2023-02-02T12:42:15;5.63;92.47
71096;DHT22;58753;49.440;11.126;2023-02-02T12:47:38;5.66;92.36
71096;DHT22;58753;49.440;11.126;2023-02-02T12:55:59;5.66;92.22
71096;DHT22;58753;49.440;11.126;2023-02-02T13:09:09;5.69;92.09
71096;DHT22;58753;49.440;11.126;2023-02-02T13:11:47;5.69;92.06
71096;DHT22;58753;49.440;11.126;2023-02-02T13:14:28;5.67;92.20
71096;DHT22;58753;49.440;11.126;2023-02-02T13:16:58;5.70;92.14
71096;DHT22;58753;49.440;11.126;2023-02-02T13:19:34;5.77;92.16
71096;DHT22;58753;49.440;11.126;2023-02-02T13:22:03;5.83;91.99
71096;DHT22;58753;49.440;11.126;2023-02-02T13:24:32;5.80;91.90
71096;DHT22;58753;49.440;11.126;2023-02-02T13:27:01;5.81;91.92
71096;DHT22;58753;49.440;11.126;2023-02-02T13:29:36;5.78;91.99
71096;DHT22;58753;49.440;11.126;2023-02-02T13:32:14;5.81;92.00
71096;DHT22;58753;49.440;11.126;2023-02-02T13:40:35;5.93;91.80
71096;DHT22;58753;49.440;11.126;2023-02-02T13:43:16;5.90;91.74
71096;DHT22;58753;49.440;11.126;2023-02-02T13:54:00;5.77;91.56
71096;DHT22;58753;49.440;11.126;2023-02-02T14:00:18;5.67;91.85
71096;DHT22;58753;49.440;11.126;2023-02-02T14:07:55;5.67;91.85
71096;DHT22;58753;49.440;11.126;2023-02-02T14:10:34;5.64;91.86
71096;DHT22;58753;49.440;11.126;2023-02-02T14:15:56;5.67;91.90
71096;DHT22;58753;49.440;11.126;2023-02-02T14:23:59;5.60;92.05
71096;DHT22;58753;49.440;11.126;2023-02-02T14:26:51;5.63;92.29
71096;DHT22;58753;49.440;11.126;2023-02-02T14:42:43;5.59;92.10
71096;DHT22;58753;49.440;11.126;2023-02-02T14:45:31;5.56;92.20
71096;DHT22;58753;49.440;11.126;2023-02-02T14:47:59;5.54;92.19
71096;DHT22;58753;49.440;11.126;2023-02-02T14:55:35;5.18;92.12
71096;DHT22;58753;49.440;11.126;2023-02-02T14:58:03;5.04;92.20
71096;DHT22;58753;49.440;11.126;2023-02-02T15:00:32;4.86;92.26
71096;DHT22;58753;49.440;11.126;2023-02-02T15:03:34;4.65;92.23
71096;DHT22;58753;49.440;11.126;2023-02-02T15:06:05;4.53;92.47
71096;DHT22;58753;49.440;11.126;2023-02-02T15:08:33;4.38;92.57
71096;DHT22;58753;49.440;11.126;2023-02-02T15:11:00;4.27;92.58
71096;DHT22;58753;49.440;11.126;2023-02-02T15:13:32;4.16;92.81
71096;DHT22;58753;49.440;11.126;2023-02-02T15:16:29;4.03;92.92
71096;DHT22;58753;49.440;11.126;2023-02-02T15:19:32;3.94;93.12
71096;DHT22;58753;49.440;11.126;2023-02-02T15:22:14;3.89;93.27
71096;DHT22;58753;49.440;11.126;2023-02-02T15:24:44;3.80;93.19
71096;DHT22;58753;49.440;11.126;2023-02-02T15:27:17;3.73;93.21
71096;DHT22;58753;49.440;11.126;2023-02-02T15:29:45;3.69;93.26
71096;DHT22;58753;49.440;11.126;2023-02-02T15:32:18;3.62;93.45
71096;DHT22;58753;49.440;11.126;2023-02-02T15:34:50;3.54;93.47
71096;DHT22;58753;49.440;11.126;2023-02-02T15:37:20;3.49;93.56
71096;DHT22;58753;49.440;11.126;2023-02-02T15:39:50;3.46;93.68
71096;DHT22;58753;49.440;11.126;2023-02-02T15:42:22;3.43;93.74
71096;DHT22;58753;49.440;11.126;2023-02-02T15:47:54;3.35;93.95
71096;DHT22;58753;49.440;11.126;2023-02-02T15:50:20;3.34;93.99
71096;DHT22;58753;49.440;11.126;2023-02-02T15:52:50;3.35;94.04
71096;DHT22;58753;49.440;11.126;2023-02-02T15:55:32;3.32;94.00
71096;DHT22;58753;49.440;11.126;2023-02-02T15:57:58;3.29;94.04
71096;DHT22;58753;49.440;11.126;2023-02-02T16:00:28;3.29;94.18
71096;DHT22;58753;49.440;11.126;2023-02-02T16:03:18;3.27;94.17
71096;DHT22;58753;49.440;11.126;2023-02-02T16:05:50;3.29;94.38
71096;DHT22;58753;49.440;11.126;2023-02-02T16:08:28;3.24;94.27
71096;DHT22;58753;49.440;11.126;2023-02-02T16:11:03;3.24;94.28
71096;DHT22;58753;49.440;11.126;2023-02-02T16:13:29;3.21;94.42
71096;DHT22;58753;49.440;11.126;2023-02-02T16:16:20;3.24;94.42
71096;DHT22;58753;49.440;11.126;2023-02-02T16:18:45;3.22;94.48
71096;DHT22;58753;49.440;11.126;2023-02-02T16:21:22;3.22;94.53
71096;DHT22;58753;49.440;11.126;2023-02-02T16:23:48;3.22;94.59
71096;DHT22;58753;49.440;11.126;2023-02-02T16:26:15;3.25;94.64
71096;DHT22;58753;49.440;11.126;2023-02-02T16:28:41;3.25;94.71
71096;DHT22;58753;49.440;11.126;2023-02-02T16:31:07;3.27;94.70
71096;DHT22;58753;49.440;11.126;2023-02-02T16:33:41;3.27;94.70
71096;DHT22;58753;49.440;11.126;2023-02-02T16:36:27;3.27;94.69
71096;DHT22;58753;49.440;11.126;2023-02-02T16:38:54;3.28;94.78
71096;DHT22;58753;49.440;11.126;2023-02-02T16:41:33;3.28;94.79
71096;DHT22;58753;49.440;11.126;2023-02-02T16:50:27;3.28;94.76
71096;DHT22;58753;49.440;11.126;2023-02-02T16:52:56;3.25;94.92
71096;DHT22;58753;49.440;11.126;2023-02-02T16:55:22;3.28;94.88
71096;DHT22;58753;49.440;11.126;2023-02-02T16:57:49;3.24;94.76
71096;DHT22;58753;49.440;11.126;2023-02-02T17:00:20;3.19;94.88
71096;DHT22;58753;49.440;11.126;2023-02-02T17:02:47;3.17;94.82
71096;DHT22;58753;49.440;11.126;2023-02-02T17:05:25;3.14;94.85
71096;DHT22;58753;49.440;11.126;2023-02-02T17:07:56;3.09;94.91
71096;DHT22;58753;49.440;11.126;2023-02-02T17:10:31;3.09;94.99
71096;DHT22;58753;49.440;11.126;2023-02-02T17:12:58;3.09;95.08
71096;DHT22;58753;49.440;11.126;2023-02-02T17:15:34;3.09;95.06
71096;DHT22;58753;49.440;11.126;2023-02-02T17:18:00;3.08;95.13
71096;DHT22;58753;49.440;11.126;2023-02-02T17:20:26;3.08;95.12
71096;DHT22;58753;49.440;11.126;2023-02-02T17:22:58;3.07;95.00
71096;DHT22;58753;49.440;11.126;2023-02-02T17:25:33;3.00;95.10
71096;DHT22;58753;49.440;11.126;2023-02-02T17:27:59;3.01;95.17
71096;DHT22;58753;49.440;11.126;2023-02-02T17:30:26;2.97;95.12
71096;DHT22;58753;49.440;11.126;2023-02-02T17:32:52;2.94;95.12
71096;DHT22;58753;49.440;11.126;2023-02-02T17:35:20;2.93;95.25
71096;DHT22;58753;49.440;11.126;2023-02-02T17:37:46;2.93;95.34
71096;DHT22;58753;49.440;11.126;2023-02-02T17:40:13;2.93;95.35
71096;DHT22;58753;49.440;11.126;2023-02-02T17:42:39;2.94;95.42
71096;DHT22;58753;49.440;11.126;2023-02-02T17:45:11;2.94;95.30
71096;DHT22;58753;49.440;11.126;2023-02-02T17:47:37;2.93;95.40
71096;DHT22;58753;49.440;11.126;2023-02-02T17:50:04;2.93;95.42
71096;DHT22;58753;49.440;11.126;2023-02-02T17:52:29;2.90;95.32
71096;DHT22;58753;49.440;11.126;2023-02-02T17:54:55;2.90;95.40
71096;DHT22;58753;49.440;11.126;2023-02-02T17:57:20;2.87;95.46
71096;DHT22;58753;49.440;11.126;2023-02-02T17:59:45;2.91;95.53
71096;DHT22;58753;49.440;11.126;2023-02-02T18:02:14;2.87;95.51
71096;DHT22;58753;49.440;11.126;2023-02-02T18:04:40;2.88;95.54
71096;DHT22;58753;49.440;11.126;2023-02-02T18:07:06;2.90;95.52
71096;DHT22;58753;49.440;11.126;2023-02-02T18:09:33;2.85;95.51
71096;DHT22;58753;49.440;11.126;2023-02-02T18:11:58;2.85;95.59
71096;DHT22;58753;49.440;11.126;2023-02-02T18:14:23;2.87;95.58
71096;DHT22;58753;49.440;11.126;2023-02-02T18:16:49;2.84;95.58
71096;DHT22;58753;49.440;11.126;2023-02-02T18:19:14;2.84;95.58